• Join FlightAware (Why Join?)
  • Login
  • US Flag 
01:32AM EDT


 

Airport Tracker/Info


-or-


 

Live Flight TrackerFlight Track Log ✈ EJA396 ✈ 17-Jun-2013 ✈ KBTV - KHVN

Flight Track Log - Related Links

Times and Time Zones

All times are in EDT time to prevent confusion due to time zone crossing. See the EJA396 flight status page for this flight to view local times or setup timezone preferences in your user account.

Time Position Orientation Groundspeed Altitude Reporting Facility
EDT Latitude Longitude Course Direction KTS MPH feet Rate Location/Type
01:55PM 44.5211 -73.2522 196° South 234 269 6,700  Level Boston Center
01:56PM 44.4686 -73.2836 203° Southwest 227 261 9,900 3,120 Climbing Boston Center
01:57PM 44.3831 -73.3231 198° South 288 331 13,000 3,720 Climbing Boston Center
01:58PM 44.3075 -73.3828 209° Southwest 316 364 17,400 3,480 Climbing Boston Center
01:59PM 44.2197 -73.4164 195° South 321 369 20,000 1,260 Climbing Boston Center
02:00PM 43.9745 -73.3307 194° South  Level FlightAware Approximate
02:00PM 44.1153 -73.4436 191° South 358 412 20,000  Level Boston Center
02:01PM 43.8759 -73.3664 196° South  Level FlightAware Approximate
02:01PM 43.9961 -73.4761 191° South 392 451 20,000  Level Boston Center
02:02PM 43.8939 -73.5061 192° South 387 445 20,000  Level Boston Center
02:03PM 43.8078 -73.5678 207° Southwest 362 417 20,000  Level Boston Center
02:04PM 43.7361 -73.6411 216° Southwest 338 389 20,000  Level Boston Center
02:05PM 43.6794 -73.6975 216° Southwest 324 373 20,000  Level Boston Center
02:06PM 43.5853 -73.7300 194° South 310 357 20,000  Level Boston Center
02:07PM 43.4933 -73.7394 184° South 310 357 20,000  Level Boston Center
02:08PM 43.3911 -73.7486 184° South 338 389 20,000  Level Boston Center
02:09PM 43.2953 -73.7439 178° South 343 395 20,000  Level Boston Center
02:10PM 43.2142 -73.7278 172° South 348 400 20,000  Level Boston Center
02:11PM 43.1122 -73.7086 172° South 348 400 20,000  Level Boston Center
02:12PM 43.0228 -73.7153 183° South 338 389 20,000 -300 Level Boston Center
02:13PM 42.9267 -73.7244 184° South 333 383 19,400 -780 Descending Boston Center
02:14PM 42.8328 -73.7397 187° South 359 413 18,500 -1,020 Descending Boston Center
02:15PM 42.7286 -73.7431 181° South 371 427 17,400 -1,080 Descending Boston Center
02:16PM 42.6244 -73.7297 175° South 371 427 16,400 -1,020 Descending Boston Center
02:17PM 42.5164 -73.7106 173° South 390 449 15,400 -1,080 Descending Boston Center
02:18PM 42.3997 -73.6939 174° South 390 449 14,300 -900 Descending Boston Center
02:19PM 42.3122 -73.6839 175° South 380 437 13,600 -900 Descending Boston Center
02:20PM 42.2167 -73.6708 174° South 362 417 12,600 -840 Descending Boston Center
02:21PM 42.1189 -73.6547 173° South 357 411 12,000 -300 Descending Boston Center
02:22PM 42.0064 -73.6358 173° South 363 418 12,000  Level Boston Center
02:23PM 41.9150 -73.6231 174° South 369 425 12,000 -360 Level Boston Center
02:24PM 41.8044 -73.6069 174° South 364 419 11,300 -1,140 Descending Boston Center
02:25PM 41.7214 -73.5778 165° South 345 397 9,800 -1,740 Descending Boston Center
02:26PM 41.6428 -73.5400 160° South 311 358 7,900 -1,500 Descending Boston Center
02:29PM 41.4833 -73.4167 150° Southeast 292 336 4,900 -1,140 Descending New York TRACON
02:30PM 41.4667 -73.3167 103° East 282 325 4,100 -420 Descending New York TRACON
02:31PM 41.4333 -73.2167 114° Southeast 283 326 4,100 -60 Level New York TRACON
02:32PM 41.4167 -73.1167 102° East 283 326 4,000 -540 Descending New York TRACON
02:33PM 41.3833 -73.0167 114° Southeast 271 312 3,100 -540 Descending New York TRACON
02:34PM 41.3667 -72.9333 105° East 237 273 3,000 -720 Descending New York TRACON
02:35PM 41.3500 -72.8833 114° Southeast 167 192 1,700 -1,020 Descending New York TRACON
02:36PM 41.3000 -72.8833 180° South 123 142 1,000 -420 Descending New York TRACON
02:37PM 41.2833 -72.8833 180° South 121 139 900 -120 Descending New York TRACON